Downstream station:
SHEF ID: NFSM7 N Fork Spring River nr Purcell, MO
STATION TYPE:
STAGE RIV-FLOW
ft cfs
Ccp-Rev Ccp-Rev
(US/Central)
03/30 00:00 3.86 192
03/30 01:00 3.85 190
03/30 02:00 3.85 190
03/30 03:00 3.84 188
03/30 04:00 3.84 188
03/30 05:00 3.86 192
03/30 06:00 3.85 190
03/30 07:00 3.85 190
03/30 08:00 3.85 190
03/30 09:00 3.85 190
03/30 10:00 3.85 190
03/30 11:00 3.85 190
03/30 12:00 3.85 190
03/30 13:00 3.86 192
03/30 14:00 3.87 194
03/30 15:00 3.88 196
03/30 16:00 3.89 198
03/30 17:00 3.90 201
03/30 18:00 3.91 203
03/30 19:00 3.93 207
03/30 20:00 3.94 209
03/30 21:00 3.95 211
03/30 22:00 3.97 215
03/30 23:00 3.99 220